sensor_id;sensor_type;location;lat;lon;timestamp;P1;durP1;ratioP1;P2;durP2;ratioP2
15094;SDS011;7648;52.264;9.632;2022-12-18T00:01:56;4.93;;;4.37;;
15094;SDS011;7648;52.264;9.632;2022-12-18T00:06:00;6.37;;;3.73;;
15094;SDS011;7648;52.264;9.632;2022-12-18T00:10:03;6.40;;;4.57;;
15094;SDS011;7648;52.264;9.632;2022-12-18T00:14:06;6.93;;;5.57;;
15094;SDS011;7648;52.264;9.632;2022-12-18T00:18:08;7.13;;;4.60;;
15094;SDS011;7648;52.264;9.632;2022-12-18T00:22:12;8.00;;;4.90;;
15094;SDS011;7648;52.264;9.632;2022-12-18T00:26:15;6.77;;;4.67;;
15094;SDS011;7648;52.264;9.632;2022-12-18T00:30:19;4.63;;;3.70;;
15094;SDS011;7648;52.264;9.632;2022-12-18T00:34:21;4.13;;;3.40;;
15094;SDS011;7648;52.264;9.632;2022-12-18T00:38:25;5.03;;;4.53;;
15094;SDS011;7648;52.264;9.632;2022-12-18T00:42:27;5.10;;;3.73;;
15094;SDS011;7648;52.264;9.632;2022-12-18T00:46:46;3.60;;;3.30;;
15094;SDS011;7648;52.264;9.632;2022-12-18T00:50:49;8.87;;;5.20;;
15094;SDS011;7648;52.264;9.632;2022-12-18T00:54:53;9.30;;;5.07;;
15094;SDS011;7648;52.264;9.632;2022-12-18T00:58:55;4.53;;;4.13;;
15094;SDS011;7648;52.264;9.632;2022-12-18T01:02:57;7.17;;;4.83;;
15094;SDS011;7648;52.264;9.632;2022-12-18T01:06:59;6.10;;;4.00;;
15094;SDS011;7648;52.264;9.632;2022-12-18T01:11:06;5.13;;;4.57;;
15094;SDS011;7648;52.264;9.632;2022-12-18T01:15:10;4.40;;;4.10;;
15094;SDS011;7648;52.264;9.632;2022-12-18T01:19:13;4.57;;;4.27;;
15094;SDS011;7648;52.264;9.632;2022-12-18T01:23:15;4.70;;;3.50;;
15094;SDS011;7648;52.264;9.632;2022-12-18T01:27:19;3.23;;;2.90;;
15094;SDS011;7648;52.264;9.632;2022-12-18T01:31:22;3.87;;;3.47;;
15094;SDS011;7648;52.264;9.632;2022-12-18T01:35:25;5.80;;;4.23;;
15094;SDS011;7648;52.264;9.632;2022-12-18T01:39:27;5.20;;;3.47;;
15094;SDS011;7648;52.264;9.632;2022-12-18T01:43:42;5.40;;;3.80;;
15094;SDS011;7648;52.264;9.632;2022-12-18T01:47:50;7.03;;;4.60;;
15094;SDS011;7648;52.264;9.632;2022-12-18T01:51:54;5.30;;;4.23;;
15094;SDS011;7648;52.264;9.632;2022-12-18T01:55:56;5.90;;;3.43;;
15094;SDS011;7648;52.264;9.632;2022-12-18T02:00:03;6.17;;;3.90;;
15094;SDS011;7648;52.264;9.632;2022-12-18T02:04:18;3.93;;;3.33;;
15094;SDS011;7648;52.264;9.632;2022-12-18T02:08:23;7.37;;;3.70;;
15094;SDS011;7648;52.264;9.632;2022-12-18T02:12:34;6.97;;;3.90;;
15094;SDS011;7648;52.264;9.632;2022-12-18T02:16:44;4.13;;;3.73;;
15094;SDS011;7648;52.264;9.632;2022-12-18T02:20:52;5.03;;;4.57;;
15094;SDS011;7648;52.264;9.632;2022-12-18T02:25:05;5.20;;;4.43;;
15094;SDS011;7648;52.264;9.632;2022-12-18T02:29:16;9.50;;;5.40;;
15094;SDS011;7648;52.264;9.632;2022-12-18T02:33:22;7.67;;;4.50;;
15094;SDS011;7648;52.264;9.632;2022-12-18T02:37:27;5.23;;;4.00;;
15094;SDS011;7648;52.264;9.632;2022-12-18T02:41:34;3.70;;;3.40;;
15094;SDS011;7648;52.264;9.632;2022-12-18T02:45:47;8.93;;;5.27;;
15094;SDS011;7648;52.264;9.632;2022-12-18T02:49:53;6.23;;;3.60;;
15094;SDS011;7648;52.264;9.632;2022-12-18T02:54:06;6.97;;;3.80;;
15094;SDS011;7648;52.264;9.632;2022-12-18T02:58:15;7.73;;;4.90;;
15094;SDS011;7648;52.264;9.632;2022-12-18T03:02:27;5.67;;;3.97;;
15094;SDS011;7648;52.264;9.632;2022-12-18T03:06:35;4.70;;;4.20;;
15094;SDS011;7648;52.264;9.632;2022-12-18T03:10:42;5.10;;;4.40;;
15094;SDS011;7648;52.264;9.632;2022-12-18T03:14:49;7.07;;;5.40;;
15094;SDS011;7648;52.264;9.632;2022-12-18T03:18:57;4.53;;;3.83;;
15094;SDS011;7648;52.264;9.632;2022-12-18T03:23:04;6.30;;;4.70;;
15094;SDS011;7648;52.264;9.632;2022-12-18T03:27:10;8.23;;;4.47;;
15094;SDS011;7648;52.264;9.632;2022-12-18T03:31:15;9.07;;;5.87;;
15094;SDS011;7648;52.264;9.632;2022-12-18T03:35:21;6.13;;;4.00;;
15094;SDS011;7648;52.264;9.632;2022-12-18T03:39:28;9.43;;;5.57;;
15094;SDS011;7648;52.264;9.632;2022-12-18T03:43:35;4.97;;;4.47;;
15094;SDS011;7648;52.264;9.632;2022-12-18T03:47:48;7.73;;;4.97;;
15094;SDS011;7648;52.264;9.632;2022-12-18T03:52:01;7.10;;;5.90;;
15094;SDS011;7648;52.264;9.632;2022-12-18T03:56:06;6.40;;;4.67;;
15094;SDS011;7648;52.264;9.632;2022-12-18T04:00:14;5.27;;;4.77;;
15094;SDS011;7648;52.264;9.632;2022-12-18T04:04:33;9.10;;;4.97;;
15094;SDS011;7648;52.264;9.632;2022-12-18T04:08:39;7.00;;;4.73;;
15094;SDS011;7648;52.264;9.632;2022-12-18T04:12:45;6.70;;;4.57;;
15094;SDS011;7648;52.264;9.632;2022-12-18T04:16:48;6.23;;;4.43;;
15094;SDS011;7648;52.264;9.632;2022-12-18T04:20:55;9.67;;;5.80;;
15094;SDS011;7648;52.264;9.632;2022-12-18T04:24:58;6.67;;;4.53;;
15094;SDS011;7648;52.264;9.632;2022-12-18T04:29:08;8.07;;;5.70;;
15094;SDS011;7648;52.264;9.632;2022-12-18T04:33:12;5.33;;;3.60;;
15094;SDS011;7648;52.264;9.632;2022-12-18T04:37:14;5.33;;;4.07;;
15094;SDS011;7648;52.264;9.632;2022-12-18T04:41:19;5.27;;;4.17;;
15094;SDS011;7648;52.264;9.632;2022-12-18T04:45:22;6.47;;;5.20;;
15094;SDS011;7648;52.264;9.632;2022-12-18T04:49:24;4.53;;;4.00;;
15094;SDS011;7648;52.264;9.632;2022-12-18T04:53:27;4.37;;;3.97;;
15094;SDS011;7648;52.264;9.632;2022-12-18T04:57:31;3.97;;;3.57;;
15094;SDS011;7648;52.264;9.632;2022-12-18T05:01:33;4.43;;;3.40;;
15094;SDS011;7648;52.264;9.632;2022-12-18T05:05:35;4.10;;;3.70;;
15094;SDS011;7648;52.264;9.632;2022-12-18T05:09:37;4.27;;;3.77;;
15094;SDS011;7648;52.264;9.632;2022-12-18T05:13:40;4.87;;;3.47;;
15094;SDS011;7648;52.264;9.632;2022-12-18T05:17:43;9.07;;;5.00;;
15094;SDS011;7648;52.264;9.632;2022-12-18T05:21:45;4.33;;;3.87;;
15094;SDS011;7648;52.264;9.632;2022-12-18T05:25:50;4.67;;;4.10;;
15094;SDS011;7648;52.264;9.632;2022-12-18T05:29:54;4.33;;;3.93;;
15094;SDS011;7648;52.264;9.632;2022-12-18T05:33:57;4.93;;;4.20;;
15094;SDS011;7648;52.264;9.632;2022-12-18T05:37:59;7.57;;;4.30;;
15094;SDS011;7648;52.264;9.632;2022-12-18T05:42:01;3.90;;;3.40;;
15094;SDS011;7648;52.264;9.632;2022-12-18T05:46:05;7.23;;;4.40;;
15094;SDS011;7648;52.264;9.632;2022-12-18T05:50:08;6.10;;;3.90;;
15094;SDS011;7648;52.264;9.632;2022-12-18T05:54:10;5.93;;;3.77;;
15094;SDS011;7648;52.264;9.632;2022-12-18T05:58:12;7.17;;;4.63;;
15094;SDS011;7648;52.264;9.632;2022-12-18T06:02:16;5.27;;;4.13;;
15094;SDS011;7648;52.264;9.632;2022-12-18T06:06:19;4.87;;;3.73;;
15094;SDS011;7648;52.264;9.632;2022-12-18T06:10:22;3.70;;;3.43;;
15094;SDS011;7648;52.264;9.632;2022-12-18T06:14:24;5.47;;;4.33;;
15094;SDS011;7648;52.264;9.632;2022-12-18T06:18:27;5.70;;;4.00;;
15094;SDS011;7648;52.264;9.632;2022-12-18T06:22:30;6.87;;;5.10;;
15094;SDS011;7648;52.264;9.632;2022-12-18T06:26:32;4.87;;;3.90;;
15094;SDS011;7648;52.264;9.632;2022-12-18T06:30:35;10.13;;;4.83;;
15094;SDS011;7648;52.264;9.632;2022-12-18T06:34:38;5.90;;;4.83;;
15094;SDS011;7648;52.264;9.632;2022-12-18T06:38:40;4.87;;;4.37;;
15094;SDS011;7648;52.264;9.632;2022-12-18T06:42:43;8.53;;;4.87;;
15094;SDS011;7648;52.264;9.632;2022-12-18T06:46:45;7.10;;;4.50;;
15094;SDS011;7648;52.264;9.632;2022-12-18T06:50:49;6.83;;;4.93;;
15094;SDS011;7648;52.264;9.632;2022-12-18T06:54:51;10.43;;;7.07;;
15094;SDS011;7648;52.264;9.632;2022-12-18T06:58:53;8.50;;;5.37;;
15094;SDS011;7648;52.264;9.632;2022-12-18T07:02:55;6.33;;;4.17;;
15094;SDS011;7648;52.264;9.632;2022-12-18T07:06:59;5.87;;;4.00;;
15094;SDS011;7648;52.264;9.632;2022-12-18T07:11:02;4.43;;;3.67;;
15094;SDS011;7648;52.264;9.632;2022-12-18T07:15:06;8.93;;;4.60;;
15094;SDS011;7648;52.264;9.632;2022-12-18T07:19:08;4.63;;;3.97;;
15094;SDS011;7648;52.264;9.632;2022-12-18T07:23:12;5.90;;;5.27;;
15094;SDS011;7648;52.264;9.632;2022-12-18T07:27:14;7.97;;;4.63;;
15094;SDS011;7648;52.264;9.632;2022-12-18T07:31:16;4.73;;;4.03;;
15094;SDS011;7648;52.264;9.632;2022-12-18T07:35:21;8.67;;;5.37;;
15094;SDS011;7648;52.264;9.632;2022-12-18T07:39:24;7.73;;;4.53;;
15094;SDS011;7648;52.264;9.632;2022-12-18T07:43:26;7.07;;;4.43;;
15094;SDS011;7648;52.264;9.632;2022-12-18T07:47:28;5.70;;;4.67;;
15094;SDS011;7648;52.264;9.632;2022-12-18T07:51:30;6.10;;;4.43;;
15094;SDS011;7648;52.264;9.632;2022-12-18T07:55:34;8.10;;;4.37;;
15094;SDS011;7648;52.264;9.632;2022-12-18T07:59:36;8.03;;;4.53;;
15094;SDS011;7648;52.264;9.632;2022-12-18T08:03:38;4.87;;;3.63;;
15094;SDS011;7648;52.264;9.632;2022-12-18T08:07:41;7.23;;;4.50;;
15094;SDS011;7648;52.264;9.632;2022-12-18T08:11:44;7.67;;;4.53;;
15094;SDS011;7648;52.264;9.632;2022-12-18T08:15:48;6.97;;;4.10;;
15094;SDS011;7648;52.264;9.632;2022-12-18T08:19:57;5.20;;;3.50;;
15094;SDS011;7648;52.264;9.632;2022-12-18T08:24:00;4.27;;;3.87;;
15094;SDS011;7648;52.264;9.632;2022-12-18T08:28:03;4.23;;;3.83;;
15094;SDS011;7648;52.264;9.632;2022-12-18T08:32:05;6.07;;;4.03;;
15094;SDS011;7648;52.264;9.632;2022-12-18T08:36:08;5.90;;;4.30;;
15094;SDS011;7648;52.264;9.632;2022-12-18T08:40:11;11.47;;;5.30;;
15094;SDS011;7648;52.264;9.632;2022-12-18T08:44:14;4.53;;;4.07;;
15094;SDS011;7648;52.264;9.632;2022-12-18T08:48:34;6.27;;;4.20;;
15094;SDS011;7648;52.264;9.632;2022-12-18T08:52:36;7.23;;;4.27;;
15094;SDS011;7648;52.264;9.632;2022-12-18T08:56:38;5.87;;;4.43;;
15094;SDS011;7648;52.264;9.632;2022-12-18T09:00:41;5.93;;;4.47;;
15094;SDS011;7648;52.264;9.632;2022-12-18T09:04:43;9.47;;;5.50;;
15094;SDS011;7648;52.264;9.632;2022-12-18T09:08:47;5.10;;;4.60;;
15094;SDS011;7648;52.264;9.632;2022-12-18T09:12:50;9.20;;;4.07;;
15094;SDS011;7648;52.264;9.632;2022-12-18T09:16:53;8.23;;;4.67;;
15094;SDS011;7648;52.264;9.632;2022-12-18T09:20:55;5.17;;;4.23;;
15094;SDS011;7648;52.264;9.632;2022-12-18T09:24:57;5.63;;;4.00;;
15094;SDS011;7648;52.264;9.632;2022-12-18T09:28:59;5.47;;;4.30;;
15094;SDS011;7648;52.264;9.632;2022-12-18T09:33:02;5.57;;;3.93;;
15094;SDS011;7648;52.264;9.632;2022-12-18T09:37:04;8.77;;;4.77;;
15094;SDS011;7648;52.264;9.632;2022-12-18T09:41:16;5.63;;;3.80;;
15094;SDS011;7648;52.264;9.632;2022-12-18T09:45:37;3.67;;;3.37;;
15094;SDS011;7648;52.264;9.632;2022-12-18T09:49:44;5.13;;;4.37;;
15094;SDS011;7648;52.264;9.632;2022-12-18T09:53:50;6.17;;;3.77;;
15094;SDS011;7648;52.264;9.632;2022-12-18T09:57:58;5.93;;;3.57;;
15094;SDS011;7648;52.264;9.632;2022-12-18T10:02:12;5.30;;;3.40;;
15094;SDS011;7648;52.264;9.632;2022-12-18T10:06:18;4.00;;;3.53;;
15094;SDS011;7648;52.264;9.632;2022-12-18T10:10:32;4.37;;;3.67;;
15094;SDS011;7648;52.264;9.632;2022-12-18T10:14:41;6.00;;;3.93;;
15094;SDS011;7648;52.264;9.632;2022-12-18T10:19:04;3.70;;;3.40;;
15094;SDS011;7648;52.264;9.632;2022-12-18T10:23:26;3.40;;;3.10;;
15094;SDS011;7648;52.264;9.632;2022-12-18T10:27:34;6.43;;;3.57;;
15094;SDS011;7648;52.264;9.632;2022-12-18T10:31:36;3.93;;;3.57;;
15094;SDS011;7648;52.264;9.632;2022-12-18T10:35:38;5.03;;;3.93;;
15094;SDS011;7648;52.264;9.632;2022-12-18T10:39:44;4.37;;;3.40;;
15094;SDS011;7648;52.264;9.632;2022-12-18T10:43:47;6.43;;;3.13;;
15094;SDS011;7648;52.264;9.632;2022-12-18T10:47:49;7.47;;;3.50;;
15094;SDS011;7648;52.264;9.632;2022-12-18T10:51:51;3.60;;;3.27;;
15094;SDS011;7648;52.264;9.632;2022-12-18T10:56:08;4.10;;;3.70;;
15094;SDS011;7648;52.264;9.632;2022-12-18T11:00:24;3.70;;;2.90;;
15094;SDS011;7648;52.264;9.632;2022-12-18T11:04:28;4.17;;;2.70;;
15094;SDS011;7648;52.264;9.632;2022-12-18T11:08:32;3.83;;;2.70;;
15094;SDS011;7648;52.264;9.632;2022-12-18T11:12:37;2.63;;;2.43;;
15094;SDS011;7648;52.264;9.632;2022-12-18T11:16:43;3.73;;;3.43;;
15094;SDS011;7648;52.264;9.632;2022-12-18T11:20:50;3.53;;;3.20;;
15094;SDS011;7648;52.264;9.632;2022-12-18T11:24:55;3.37;;;3.07;;
15094;SDS011;7648;52.264;9.632;2022-12-18T11:29:08;4.73;;;2.87;;
15094;SDS011;7648;52.264;9.632;2022-12-18T11:33:12;3.47;;;3.17;;
15094;SDS011;7648;52.264;9.632;2022-12-18T11:37:18;2.70;;;2.50;;
15094;SDS011;7648;52.264;9.632;2022-12-18T11:41:21;4.70;;;3.00;;
15094;SDS011;7648;52.264;9.632;2022-12-18T11:45:51;5.07;;;3.00;;
15094;SDS011;7648;52.264;9.632;2022-12-18T11:49:56;5.10;;;2.80;;
15094;SDS011;7648;52.264;9.632;2022-12-18T11:54:04;2.60;;;2.37;;
15094;SDS011;7648;52.264;9.632;2022-12-18T11:58:15;3.13;;;2.67;;
15094;SDS011;7648;52.264;9.632;2022-12-18T12:02:36;3.20;;;2.67;;
15094;SDS011;7648;52.264;9.632;2022-12-18T12:06:49;2.40;;;2.20;;
15094;SDS011;7648;52.264;9.632;2022-12-18T12:10:59;7.77;;;2.60;;
15094;SDS011;7648;52.264;9.632;2022-12-18T12:15:10;2.53;;;1.93;;
15094;SDS011;7648;52.264;9.632;2022-12-18T12:19:24;2.40;;;2.07;;
15094;SDS011;7648;52.264;9.632;2022-12-18T12:23:38;2.20;;;2.10;;
15094;SDS011;7648;52.264;9.632;2022-12-18T12:27:46;2.90;;;2.43;;
15094;SDS011;7648;52.264;9.632;2022-12-18T12:36:20;4.47;;;2.70;;
15094;SDS011;7648;52.264;9.632;2022-12-18T12:40:29;3.00;;;2.80;;
15094;SDS011;7648;52.264;9.632;2022-12-18T12:44:37;7.10;;;4.67;;
15094;SDS011;7648;52.264;9.632;2022-12-18T12:48:44;2.37;;;2.17;;
15094;SDS011;7648;52.264;9.632;2022-12-18T12:52:51;3.17;;;2.87;;
15094;SDS011;7648;52.264;9.632;2022-12-18T12:56:57;5.23;;;2.80;;
15094;SDS011;7648;52.264;9.632;2022-12-18T13:01:12;3.07;;;2.60;;
15094;SDS011;7648;52.264;9.632;2022-12-18T13:05:21;2.87;;;2.67;;
15094;SDS011;7648;52.264;9.632;2022-12-18T13:09:31;3.77;;;3.10;;
15094;SDS011;7648;52.264;9.632;2022-12-18T13:13:36;3.53;;;2.67;;
15094;SDS011;7648;52.264;9.632;2022-12-18T13:18:02;4.00;;;2.93;;
15094;SDS011;7648;52.264;9.632;2022-12-18T13:22:12;4.17;;;3.30;;
15094;SDS011;7648;52.264;9.632;2022-12-18T13:26:31;3.57;;;3.00;;
15094;SDS011;7648;52.264;9.632;2022-12-18T13:30:47;4.10;;;3.50;;
15094;SDS011;7648;52.264;9.632;2022-12-18T13:39:41;5.50;;;1.97;;
15094;SDS011;7648;52.264;9.632;2022-12-18T13:43:48;3.37;;;1.97;;
15094;SDS011;7648;52.264;9.632;2022-12-18T13:47:51;2.77;;;2.13;;
15094;SDS011;7648;52.264;9.632;2022-12-18T13:51:54;3.87;;;2.33;;
15094;SDS011;7648;52.264;9.632;2022-12-18T13:55:57;2.87;;;2.47;;
15094;SDS011;7648;52.264;9.632;2022-12-18T14:00:16;2.87;;;2.63;;
15094;SDS011;7648;52.264;9.632;2022-12-18T14:04:26;2.90;;;2.20;;
15094;SDS011;7648;52.264;9.632;2022-12-18T14:08:32;3.73;;;2.47;;
15094;SDS011;7648;52.264;9.632;2022-12-18T14:12:39;4.20;;;2.30;;
15094;SDS011;7648;52.264;9.632;2022-12-18T14:17:02;2.43;;;2.03;;
15094;SDS011;7648;52.264;9.632;2022-12-18T14:21:15;2.33;;;2.10;;
15094;SDS011;7648;52.264;9.632;2022-12-18T14:25:21;2.57;;;2.37;;
15094;SDS011;7648;52.264;9.632;2022-12-18T14:29:25;4.80;;;2.10;;
15094;SDS011;7648;52.264;9.632;2022-12-18T14:33:30;4.70;;;2.50;;
15094;SDS011;7648;52.264;9.632;2022-12-18T14:37:32;2.90;;;2.10;;
15094;SDS011;7648;52.264;9.632;2022-12-18T14:41:34;2.77;;;2.57;;
15094;SDS011;7648;52.264;9.632;2022-12-18T14:45:38;3.77;;;2.30;;
15094;SDS011;7648;52.264;9.632;2022-12-18T14:49:43;3.33;;;2.50;;
15094;SDS011;7648;52.264;9.632;2022-12-18T14:53:46;3.17;;;2.87;;
15094;SDS011;7648;52.264;9.632;2022-12-18T14:57:49;2.57;;;2.37;;
15094;SDS011;7648;52.264;9.632;2022-12-18T15:01:57;3.07;;;2.60;;
15094;SDS011;7648;52.264;9.632;2022-12-18T15:06:16;2.97;;;2.67;;
15094;SDS011;7648;52.264;9.632;2022-12-18T15:10:19;2.77;;;2.57;;
15094;SDS011;7648;52.264;9.632;2022-12-18T15:14:24;2.80;;;2.60;;
15094;SDS011;7648;52.264;9.632;2022-12-18T15:18:35;5.27;;;2.33;;
15094;SDS011;7648;52.264;9.632;2022-12-18T15:22:46;2.13;;;1.93;;
15094;SDS011;7648;52.264;9.632;2022-12-18T15:26:49;2.00;;;1.60;;
15094;SDS011;7648;52.264;9.632;2022-12-18T15:30:58;2.07;;;1.97;;
15094;SDS011;7648;52.264;9.632;2022-12-18T15:35:02;2.73;;;2.10;;
15094;SDS011;7648;52.264;9.632;2022-12-18T15:39:14;2.07;;;1.97;;
15094;SDS011;7648;52.264;9.632;2022-12-18T15:43:16;3.23;;;2.57;;
15094;SDS011;7648;52.264;9.632;2022-12-18T15:47:37;3.43;;;2.27;;
15094;SDS011;7648;52.264;9.632;2022-12-18T15:51:39;2.37;;;2.17;;
15094;SDS011;7648;52.264;9.632;2022-12-18T15:55:43;2.27;;;2.07;;
15094;SDS011;7648;52.264;9.632;2022-12-18T16:00:02;2.63;;;2.03;;
15094;SDS011;7648;52.264;9.632;2022-12-18T16:04:05;2.57;;;2.37;;
15094;SDS011;7648;52.264;9.632;2022-12-18T16:08:07;4.10;;;2.13;;
15094;SDS011;7648;52.264;9.632;2022-12-18T16:12:23;9.83;;;4.53;;
15094;SDS011;7648;52.264;9.632;2022-12-18T16:16:26;4.87;;;2.93;;
15094;SDS011;7648;52.264;9.632;2022-12-18T16:20:28;2.73;;;2.53;;
15094;SDS011;7648;52.264;9.632;2022-12-18T16:24:31;2.60;;;2.40;;
15094;SDS011;7648;52.264;9.632;2022-12-18T16:28:37;2.90;;;2.70;;
15094;SDS011;7648;52.264;9.632;2022-12-18T16:32:39;2.40;;;2.20;;
15094;SDS011;7648;52.264;9.632;2022-12-18T16:36:41;3.60;;;3.13;;
15094;SDS011;7648;52.264;9.632;2022-12-18T16:40:43;3.03;;;2.73;;
15094;SDS011;7648;52.264;9.632;2022-12-18T16:45:00;4.63;;;2.80;;
15094;SDS011;7648;52.264;9.632;2022-12-18T16:49:02;3.23;;;2.57;;
15094;SDS011;7648;52.264;9.632;2022-12-18T16:53:05;3.03;;;2.83;;
15094;SDS011;7648;52.264;9.632;2022-12-18T16:57:08;4.63;;;3.07;;
15094;SDS011;7648;52.264;9.632;2022-12-18T17:01:14;3.10;;;2.80;;
15094;SDS011;7648;52.264;9.632;2022-12-18T17:05:17;4.33;;;2.97;;
15094;SDS011;7648;52.264;9.632;2022-12-18T17:09:21;3.13;;;2.87;;
15094;SDS011;7648;52.264;9.632;2022-12-18T17:13:25;5.70;;;2.90;;
15094;SDS011;7648;52.264;9.632;2022-12-18T17:17:29;2.70;;;2.50;;
15094;SDS011;7648;52.264;9.632;2022-12-18T17:21:31;3.37;;;2.97;;
15094;SDS011;7648;52.264;9.632;2022-12-18T17:25:34;3.17;;;2.93;;
15094;SDS011;7648;52.264;9.632;2022-12-18T17:29:39;4.13;;;3.20;;
15094;SDS011;7648;52.264;9.632;2022-12-18T17:33:43;4.53;;;3.07;;
15094;SDS011;7648;52.264;9.632;2022-12-18T17:37:45;3.20;;;2.90;;
15094;SDS011;7648;52.264;9.632;2022-12-18T17:41:48;4.10;;;3.00;;
15094;SDS011;7648;52.264;9.632;2022-12-18T17:45:51;3.87;;;3.47;;
15094;SDS011;7648;52.264;9.632;2022-12-18T17:49:54;2.93;;;2.70;;
15094;SDS011;7648;52.264;9.632;2022-12-18T17:53:56;4.03;;;3.63;;
15094;SDS011;7648;52.264;9.632;2022-12-18T17:57:58;3.77;;;3.47;;
15094;SDS011;7648;52.264;9.632;2022-12-18T18:02:00;3.90;;;3.37;;
15094;SDS011;7648;52.264;9.632;2022-12-18T18:06:04;3.37;;;3.07;;
15094;SDS011;7648;52.264;9.632;2022-12-18T18:10:06;5.33;;;3.47;;
15094;SDS011;7648;52.264;9.632;2022-12-18T18:14:11;4.67;;;3.57;;
15094;SDS011;7648;52.264;9.632;2022-12-18T18:18:15;4.47;;;4.07;;
15094;SDS011;7648;52.264;9.632;2022-12-18T18:22:18;6.37;;;3.87;;
15094;SDS011;7648;52.264;9.632;2022-12-18T18:26:20;4.33;;;3.83;;
15094;SDS011;7648;52.264;9.632;2022-12-18T18:30:23;7.27;;;3.77;;
15094;SDS011;7648;52.264;9.632;2022-12-18T18:34:26;6.43;;;3.90;;
15094;SDS011;7648;52.264;9.632;2022-12-18T18:38:30;7.57;;;3.60;;
15094;SDS011;7648;52.264;9.632;2022-12-18T18:42:32;4.43;;;4.00;;
15094;SDS011;7648;52.264;9.632;2022-12-18T18:46:34;5.17;;;4.67;;
15094;SDS011;7648;52.264;9.632;2022-12-18T18:50:36;6.47;;;3.70;;
15094;SDS011;7648;52.264;9.632;2022-12-18T18:54:40;5.93;;;4.23;;
15094;SDS011;7648;52.264;9.632;2022-12-18T18:58:42;4.33;;;3.63;;
15094;SDS011;7648;52.264;9.632;2022-12-18T19:02:45;5.60;;;4.17;;
15094;SDS011;7648;52.264;9.632;2022-12-18T19:06:47;6.70;;;4.27;;
15094;SDS011;7648;52.264;9.632;2022-12-18T19:10:51;5.77;;;3.60;;
15094;SDS011;7648;52.264;9.632;2022-12-18T19:14:53;4.67;;;4.10;;
15094;SDS011;7648;52.264;9.632;2022-12-18T19:18:56;8.83;;;4.73;;
15094;SDS011;7648;52.264;9.632;2022-12-18T19:22:58;4.67;;;3.87;;
15094;SDS011;7648;52.264;9.632;2022-12-18T19:27:01;5.93;;;3.97;;
15094;SDS011;7648;52.264;9.632;2022-12-18T19:31:04;7.77;;;4.30;;
15094;SDS011;7648;52.264;9.632;2022-12-18T19:35:07;5.83;;;3.97;;
15094;SDS011;7648;52.264;9.632;2022-12-18T19:39:10;10.07;;;4.93;;
15094;SDS011;7648;52.264;9.632;2022-12-18T19:43:15;8.57;;;5.00;;
15094;SDS011;7648;52.264;9.632;2022-12-18T19:47:17;4.73;;;4.00;;
15094;SDS011;7648;52.264;9.632;2022-12-18T19:51:20;6.90;;;4.17;;
15094;SDS011;7648;52.264;9.632;2022-12-18T19:55:24;8.80;;;4.87;;
15094;SDS011;7648;52.264;9.632;2022-12-18T19:59:28;7.40;;;4.50;;
15094;SDS011;7648;52.264;9.632;2022-12-18T20:03:30;7.43;;;4.73;;
15094;SDS011;7648;52.264;9.632;2022-12-18T20:07:32;6.50;;;4.27;;
15094;SDS011;7648;52.264;9.632;2022-12-18T20:11:34;7.17;;;5.03;;
15094;SDS011;7648;52.264;9.632;2022-12-18T20:15:38;7.57;;;4.53;;
15094;SDS011;7648;52.264;9.632;2022-12-18T20:19:40;6.40;;;4.57;;
15094;SDS011;7648;52.264;9.632;2022-12-18T20:23:42;8.83;;;5.30;;
15094;SDS011;7648;52.264;9.632;2022-12-18T20:27:44;8.20;;;4.80;;
15094;SDS011;7648;52.264;9.632;2022-12-18T20:31:47;7.23;;;4.53;;
15094;SDS011;7648;52.264;9.632;2022-12-18T20:35:49;8.50;;;4.67;;
15094;SDS011;7648;52.264;9.632;2022-12-18T20:39:51;6.57;;;5.00;;
15094;SDS011;7648;52.264;9.632;2022-12-18T20:43:54;9.10;;;5.40;;
15094;SDS011;7648;52.264;9.632;2022-12-18T20:47:57;7.70;;;5.03;;
15094;SDS011;7648;52.264;9.632;2022-12-18T20:52:00;6.60;;;4.93;;
15094;SDS011;7648;52.264;9.632;2022-12-18T20:56:04;7.07;;;4.87;;
15094;SDS011;7648;52.264;9.632;2022-12-18T21:00:07;8.90;;;4.83;;
15094;SDS011;7648;52.264;9.632;2022-12-18T21:04:12;9.53;;;5.90;;
15094;SDS011;7648;52.264;9.632;2022-12-18T21:08:14;6.80;;;4.87;;
15094;SDS011;7648;52.264;9.632;2022-12-18T21:12:16;5.57;;;4.53;;
15094;SDS011;7648;52.264;9.632;2022-12-18T21:16:45;6.27;;;5.03;;
15094;SDS011;7648;52.264;9.632;2022-12-18T21:20:49;10.07;;;5.63;;
15094;SDS011;7648;52.264;9.632;2022-12-18T21:24:51;8.43;;;4.70;;
15094;SDS011;7648;52.264;9.632;2022-12-18T21:28:53;6.43;;;4.57;;
15094;SDS011;7648;52.264;9.632;2022-12-18T21:32:56;9.80;;;5.60;;
15094;SDS011;7648;52.264;9.632;2022-12-18T21:37:00;9.63;;;5.07;;
15094;SDS011;7648;52.264;9.632;2022-12-18T21:41:04;8.93;;;5.00;;
15094;SDS011;7648;52.264;9.632;2022-12-18T21:45:08;7.03;;;5.03;;
15094;SDS011;7648;52.264;9.632;2022-12-18T21:49:11;7.90;;;5.23;;
15094;SDS011;7648;52.264;9.632;2022-12-18T21:53:17;9.37;;;4.83;;
15094;SDS011;7648;52.264;9.632;2022-12-18T21:57:19;10.10;;;5.47;;
15094;SDS011;7648;52.264;9.632;2022-12-18T22:01:21;7.20;;;5.10;;
15094;SDS011;7648;52.264;9.632;2022-12-18T22:05:23;7.53;;;5.50;;
15094;SDS011;7648;52.264;9.632;2022-12-18T22:09:27;9.57;;;4.90;;
15094;SDS011;7648;52.264;9.632;2022-12-18T22:13:29;9.23;;;5.27;;
15094;SDS011;7648;52.264;9.632;2022-12-18T22:17:31;11.07;;;6.33;;
15094;SDS011;7648;52.264;9.632;2022-12-18T22:21:33;9.57;;;5.60;;
15094;SDS011;7648;52.264;9.632;2022-12-18T22:25:38;7.70;;;5.37;;
15094;SDS011;7648;52.264;9.632;2022-12-18T22:29:40;9.17;;;6.20;;
15094;SDS011;7648;52.264;9.632;2022-12-18T22:33:59;10.10;;;6.27;;
15094;SDS011;7648;52.264;9.632;2022-12-18T22:38:02;9.23;;;5.07;;
15094;SDS011;7648;52.264;9.632;2022-12-18T22:42:05;8.93;;;5.37;;
15094;SDS011;7648;52.264;9.632;2022-12-18T22:46:08;8.70;;;4.80;;
15094;SDS011;7648;52.264;9.632;2022-12-18T22:50:13;11.67;;;6.20;;
15094;SDS011;7648;52.264;9.632;2022-12-18T22:54:15;9.37;;;5.40;;
15094;SDS011;7648;52.264;9.632;2022-12-18T22:58:18;9.97;;;5.70;;
15094;SDS011;7648;52.264;9.632;2022-12-18T23:02:20;6.50;;;5.37;;
15094;SDS011;7648;52.264;9.632;2022-12-18T23:06:23;9.30;;;5.10;;
15094;SDS011;7648;52.264;9.632;2022-12-18T23:10:26;5.67;;;4.40;;
15094;SDS011;7648;52.264;9.632;2022-12-18T23:14:30;8.10;;;5.80;;
15094;SDS011;7648;52.264;9.632;2022-12-18T23:18:32;8.00;;;5.87;;
15094;SDS011;7648;52.264;9.632;2022-12-18T23:22:34;7.60;;;4.90;;
15094;SDS011;7648;52.264;9.632;2022-12-18T23:26:36;5.67;;;5.00;;
15094;SDS011;7648;52.264;9.632;2022-12-18T23:30:40;10.27;;;6.23;;
15094;SDS011;7648;52.264;9.632;2022-12-18T23:34:42;7.30;;;4.83;;
15094;SDS011;7648;52.264;9.632;2022-12-18T23:38:46;9.50;;;5.70;;
15094;SDS011;7648;52.264;9.632;2022-12-18T23:42:49;8.57;;;5.73;;
15094;SDS011;7648;52.264;9.632;2022-12-18T23:46:53;6.73;;;4.80;;
15094;SDS011;7648;52.264;9.632;2022-12-18T23:50:55;10.03;;;5.17;;
15094;SDS011;7648;52.264;9.632;2022-12-18T23:54:57;9.50;;;5.77;;
15094;SDS011;7648;52.264;9.632;2022-12-18T23:58:59;9.80;;;5.73;;
